createdAt,value
2023-01-13T00:01:29.341Z,9.10
2023-01-13T00:03:51.365Z,9.16
2023-01-13T00:06:15.660Z,9.12
2023-01-13T00:08:37.224Z,9.15
2023-01-13T00:10:59.154Z,9.18
2023-01-13T00:13:26.831Z,9.15
2023-01-13T00:15:56.434Z,9.15
2023-01-13T00:18:18.009Z,9.17
2023-01-13T00:20:39.526Z,9.15
2023-01-13T00:23:01.543Z,9.11
2023-01-13T00:25:23.063Z,9.18
2023-01-13T00:27:44.609Z,9.16
2023-01-13T00:30:07.610Z,9.17
2023-01-13T00:32:29.246Z,9.18
2023-01-13T00:34:50.785Z,9.22
2023-01-13T00:37:14.727Z,9.24
2023-01-13T00:39:36.271Z,9.23
2023-01-13T00:42:16.121Z,9.27
2023-01-13T00:44:37.667Z,9.17
2023-01-13T00:46:59.262Z,9.13
2023-01-13T00:49:20.866Z,9.11
2023-01-13T00:51:42.447Z,9.08
2023-01-13T00:54:04.144Z,9.10
2023-01-13T00:56:39.581Z,9.08
2023-01-13T00:59:02.289Z,9.13
2023-01-13T01:01:25.328Z,9.16
2023-01-13T01:03:51.718Z,9.21
2023-01-13T01:06:16.606Z,9.26
2023-01-13T01:08:38.477Z,9.29
2023-01-13T01:11:12.135Z,9.31
2023-01-13T01:13:34.291Z,9.29
2023-01-13T01:15:56.358Z,9.29
2023-01-13T01:18:17.983Z,9.30
2023-01-13T01:20:39.660Z,9.25
2023-01-13T01:23:01.240Z,9.31
2023-01-13T01:25:22.815Z,9.30
2023-01-13T01:27:44.360Z,9.29
2023-01-13T01:30:06.542Z,9.34
2023-01-13T01:32:28.080Z,9.28
2023-01-13T01:34:51.501Z,9.36
2023-01-13T01:37:13.074Z,9.33
2023-01-13T01:39:34.700Z,9.36
2023-01-13T01:42:14.646Z,9.36
2023-01-13T01:44:42.140Z,9.33
2023-01-13T01:47:03.770Z,9.37
2023-01-13T01:49:29.672Z,9.39
2023-01-13T01:52:00.873Z,9.40
2023-01-13T01:54:28.544Z,9.44
2023-01-13T01:56:50.910Z,9.43
2023-01-13T01:59:13.478Z,9.38
2023-01-13T02:01:35.368Z,9.44
2023-01-13T02:04:05.436Z,9.42
2023-01-13T02:06:29.893Z,9.46
2023-01-13T02:08:53.078Z,9.47
2023-01-13T02:11:51.634Z,9.48
2023-01-13T02:14:13.307Z,9.42
2023-01-13T02:16:38.642Z,9.45
2023-01-13T02:19:39.096Z,9.48
2023-01-13T02:22:22.459Z,9.51
2023-01-13T02:25:20.026Z,9.53
2023-01-13T02:27:55.592Z,9.56
2023-01-13T02:30:49.614Z,9.57
2023-01-13T02:33:18.234Z,9.56
2023-01-13T02:36:05.945Z,9.58
2023-01-13T02:38:37.318Z,9.58
2023-01-13T02:41:29.619Z,9.54
2023-01-13T02:44:09.235Z,9.57
2023-01-13T02:46:36.448Z,9.64
2023-01-13T02:49:02.775Z,9.63
2023-01-13T02:51:27.567Z,9.61
2023-01-13T02:54:01.664Z,9.59
2023-01-13T02:56:24.630Z,9.64
2023-01-13T02:58:48.027Z,9.60
2023-01-13T03:01:09.799Z,9.61
2023-01-13T03:03:31.306Z,9.49
2023-01-13T03:06:00.337Z,9.49
2023-01-13T03:08:43.169Z,9.52
2023-01-13T03:11:14.115Z,9.52
2023-01-13T03:13:57.808Z,9.55
2023-01-13T03:16:27.830Z,9.47
2023-01-13T03:19:04.674Z,9.51
2023-01-13T03:21:39.803Z,9.53
2023-01-13T03:24:09.287Z,9.53
2023-01-13T03:26:40.778Z,9.44
2023-01-13T03:29:11.347Z,9.57
2023-01-13T03:31:37.749Z,9.48
2023-01-13T03:34:04.234Z,9.55
2023-01-13T03:36:29.725Z,9.55
2023-01-13T03:38:58.436Z,9.45
2023-01-13T03:41:29.761Z,9.48
2023-01-13T03:44:22.165Z,9.49
2023-01-13T03:46:59.171Z,9.50
2023-01-13T03:49:26.279Z,9.40
2023-01-13T03:51:53.638Z,9.57
2023-01-13T03:54:17.884Z,9.47
2023-01-13T03:56:45.233Z,9.60
2023-01-13T03:59:10.262Z,9.56
2023-01-13T04:01:54.703Z,9.49
2023-01-13T04:04:21.237Z,9.49
2023-01-13T04:07:01.438Z,9.46
2023-01-13T04:09:48.323Z,9.53
2023-01-13T04:12:28.223Z,9.49
2023-01-13T04:14:50.736Z,9.51
2023-01-13T04:17:12.348Z,9.51
2023-01-13T04:19:33.998Z,9.50
2023-01-13T04:21:55.432Z,9.56
2023-01-13T04:24:17.025Z,9.55
2023-01-13T04:26:38.490Z,9.57
2023-01-13T04:28:59.912Z,9.60
2023-01-13T04:31:21.608Z,9.54
2023-01-13T04:33:43.126Z,9.58
2023-01-13T04:36:04.904Z,9.59
2023-01-13T04:38:26.419Z,9.56
2023-01-13T04:40:48.312Z,9.53
2023-01-13T04:43:10.129Z,9.57
2023-01-13T04:45:31.837Z,9.59
2023-01-13T04:47:53.473Z,9.62
2023-01-13T04:50:19.378Z,9.71
2023-01-13T04:52:41.067Z,9.71
2023-01-13T04:55:02.514Z,9.70
2023-01-13T04:57:24.080Z,9.65
2023-01-13T04:59:45.549Z,9.64
2023-01-13T05:02:09.011Z,9.61
2023-01-13T05:04:30.520Z,9.64
2023-01-13T05:06:52.032Z,9.66
2023-01-13T05:09:15.641Z,9.60
2023-01-13T05:11:55.588Z,9.64
2023-01-13T05:14:35.399Z,9.68
2023-01-13T05:17:03.520Z,9.62
2023-01-13T05:19:24.953Z,9.64
2023-01-13T05:22:05.060Z,9.72
2023-01-13T05:24:45.147Z,9.73
2023-01-13T05:27:06.576Z,9.64
2023-01-13T05:29:28.019Z,9.70
2023-01-13T05:31:49.456Z,9.58
2023-01-13T05:34:10.886Z,9.51
2023-01-13T05:36:32.315Z,9.11
2023-01-13T05:38:53.727Z,8.92
2023-01-13T05:41:33.833Z,8.65
2023-01-13T05:43:55.277Z,8.59
2023-01-13T05:46:17.703Z,8.35
2023-01-13T05:48:42.196Z,8.21
2023-01-13T05:51:05.423Z,8.06
2023-01-13T05:53:27.280Z,7.86
2023-01-13T05:55:49.553Z,7.78
2023-01-13T05:58:12.868Z,7.66
2023-01-13T06:00:34.384Z,7.53
2023-01-13T06:02:55.835Z,7.54
2023-01-13T06:05:17.282Z,7.40
2023-01-13T06:07:38.716Z,7.35
2023-01-13T06:10:00.159Z,7.29
2023-01-13T06:12:21.589Z,7.13
2023-01-13T06:14:43.143Z,7.08
2023-01-13T06:17:04.541Z,7.07
2023-01-13T06:19:25.982Z,7.10
2023-01-13T06:21:48.592Z,7.08
2023-01-13T06:24:10.671Z,7.10
2023-01-13T06:26:38.019Z,7.01
2023-01-13T06:28:59.626Z,7.05
2023-01-13T06:31:21.529Z,7.02
2023-01-13T06:33:49.740Z,7.00
2023-01-13T06:36:19.334Z,6.99
2023-01-13T06:38:46.667Z,6.98
2023-01-13T06:41:08.896Z,6.98
2023-01-13T06:43:30.387Z,6.90
2023-01-13T06:45:56.359Z,6.92
2023-01-13T06:48:20.328Z,6.84
2023-01-13T06:50:42.315Z,6.84
2023-01-13T06:53:03.829Z,6.88
2023-01-13T06:55:25.312Z,6.77
2023-01-13T06:57:55.084Z,6.80
2023-01-13T07:00:16.865Z,6.79
2023-01-13T07:02:38.311Z,6.76
2023-01-13T07:04:59.779Z,6.69
2023-01-13T07:07:21.226Z,6.77
2023-01-13T07:09:42.662Z,6.71
2023-01-13T07:12:04.343Z,6.69
2023-01-13T07:14:44.668Z,6.71
2023-01-13T07:17:06.126Z,6.62
2023-01-13T07:19:27.558Z,6.47
2023-01-13T07:21:52.715Z,6.50
2023-01-13T07:24:14.289Z,6.39
2023-01-13T07:26:35.749Z,6.37
2023-01-13T07:28:58.144Z,6.33
2023-01-13T07:31:21.693Z,6.15
2023-01-13T07:33:43.461Z,6.12
2023-01-13T07:36:06.019Z,6.11
2023-01-13T07:38:27.982Z,6.12
2023-01-13T07:40:49.418Z,6.20
2023-01-13T07:43:31.556Z,6.29
2023-01-13T07:45:58.730Z,6.27
2023-01-13T07:48:20.386Z,6.34
2023-01-13T07:50:44.069Z,6.36
2023-01-13T07:53:05.732Z,6.43
2023-01-13T07:55:27.181Z,6.39
2023-01-13T07:57:48.722Z,6.55
2023-01-13T08:00:12.850Z,6.49
2023-01-13T08:02:34.748Z,6.54
2023-01-13T08:04:56.241Z,6.63
2023-01-13T08:07:17.721Z,6.63
2023-01-13T08:09:39.165Z,6.67
2023-01-13T08:12:19.418Z,6.77
2023-01-13T08:14:40.875Z,6.79
2023-01-13T08:17:02.345Z,6.86
2023-01-13T08:19:23.789Z,6.96
2023-01-13T08:21:45.199Z,6.95
2023-01-13T08:24:07.102Z,6.96
2023-01-13T08:26:28.510Z,6.91
2023-01-13T08:28:50.041Z,6.96
2023-01-13T08:31:16.914Z,6.96
2023-01-13T08:33:39.037Z,6.89
2023-01-13T08:36:09.597Z,6.84
2023-01-13T08:38:31.193Z,6.87
2023-01-13T08:40:52.792Z,6.83
2023-01-13T08:43:14.308Z,6.96
2023-01-13T08:45:36.160Z,6.98
2023-01-13T08:47:58.060Z,6.97
2023-01-13T08:50:19.660Z,7.01
2023-01-13T08:52:41.454Z,7.14
2023-01-13T08:55:03.182Z,7.13
2023-01-13T08:57:24.713Z,7.12
2023-01-13T08:59:46.587Z,7.10
2023-01-13T09:02:20.187Z,7.35
2023-01-13T09:04:41.871Z,7.12
2023-01-13T09:07:03.454Z,7.24
2023-01-13T09:09:27.574Z,7.21
2023-01-13T09:12:09.434Z,7.47
2023-01-13T09:14:33.121Z,7.29
2023-01-13T09:16:54.581Z,7.38
2023-01-13T09:19:16.027Z,7.39
2023-01-13T09:21:37.615Z,7.46
2023-01-13T09:23:59.407Z,7.45
2023-01-13T09:26:21.674Z,7.55
2023-01-13T09:28:43.195Z,7.61
2023-01-13T09:31:04.962Z,7.57
2023-01-13T09:33:45.056Z,7.58
2023-01-13T09:36:06.967Z,7.75
2023-01-13T09:38:28.409Z,7.78
2023-01-13T09:40:50.118Z,7.94
2023-01-13T09:43:39.775Z,7.93
2023-01-13T09:46:32.448Z,8.05
2023-01-13T09:48:56.028Z,8.05
2023-01-13T09:51:30.544Z,8.30
2023-01-13T09:53:57.790Z,8.51
2023-01-13T09:56:19.188Z,8.41
2023-01-13T09:58:41.662Z,8.47
2023-01-13T10:01:21.735Z,8.42
2023-01-13T10:03:43.449Z,8.43
2023-01-13T10:06:20.984Z,8.46
2023-01-13T10:08:45.146Z,8.43
2023-01-13T10:11:38.026Z,8.57
2023-01-13T10:14:03.045Z,8.55
2023-01-13T10:16:42.115Z,8.57
2023-01-13T10:19:16.267Z,8.64
2023-01-13T10:21:56.475Z,8.56
2023-01-13T10:24:30.049Z,8.38
2023-01-13T10:27:05.042Z,8.47
2023-01-13T10:29:29.121Z,8.67
2023-01-13T10:31:52.307Z,8.83
2023-01-13T10:34:16.701Z,8.83
2023-01-13T10:36:38.128Z,8.72
2023-01-13T10:39:16.142Z,8.76
2023-01-13T10:41:37.580Z,8.78
2023-01-13T10:44:02.895Z,8.77
2023-01-13T10:46:24.598Z,8.68
2023-01-13T10:48:53.080Z,8.59
2023-01-13T10:51:14.427Z,8.30
2023-01-13T10:53:45.668Z,8.22
2023-01-13T10:56:16.808Z,8.41
2023-01-13T10:58:38.231Z,8.54
2023-01-13T11:01:02.792Z,8.40
2023-01-13T11:03:24.928Z,8.35
2023-01-13T11:05:56.003Z,8.33
2023-01-13T11:08:20.306Z,8.30
2023-01-13T11:10:49.606Z,8.36
2023-01-13T11:13:16.376Z,8.28
2023-01-13T11:15:50.619Z,8.25
2023-01-13T11:18:26.438Z,8.36
2023-01-13T11:20:50.344Z,8.45
2023-01-13T11:23:27.342Z,8.39
2023-01-13T11:25:59.370Z,8.48
2023-01-13T11:28:49.566Z,8.47
2023-01-13T11:31:19.308Z,8.40
2023-01-13T11:33:55.428Z,8.44
2023-01-13T11:36:22.178Z,8.42
2023-01-13T11:38:52.039Z,8.45
2023-01-13T11:41:23.580Z,8.52
2023-01-13T11:43:51.756Z,8.59
2023-01-13T11:46:13.347Z,8.52
2023-01-13T11:48:39.916Z,8.63
2023-01-13T11:51:13.917Z,8.65
2023-01-13T11:54:22.499Z,8.68
2023-01-13T11:56:55.915Z,8.78
2023-01-13T11:59:32.292Z,8.91
2023-01-13T12:02:18.842Z,8.77
2023-01-13T12:05:18.287Z,8.96
2023-01-13T12:08:19.561Z,8.84
2023-01-13T12:11:08.835Z,8.96
2023-01-13T12:13:33.289Z,9.17
2023-01-13T12:16:17.934Z,9.27
2023-01-13T12:18:51.507Z,9.20
2023-01-13T12:21:12.948Z,9.27
2023-01-13T12:23:41.879Z,9.24
2023-01-13T12:26:10.305Z,9.45
2023-01-13T12:29:00.317Z,9.57
2023-01-13T12:31:23.300Z,9.64
2023-01-13T12:33:49.598Z,9.74
2023-01-13T12:36:38.889Z,9.80
2023-01-13T12:39:29.769Z,9.52
2023-01-13T12:42:17.710Z,9.34
2023-01-13T12:45:11.229Z,9.46
2023-01-13T12:47:35.165Z,9.35
2023-01-13T12:50:22.513Z,9.29
2023-01-13T12:52:45.161Z,9.07
2023-01-13T12:55:12.552Z,9.15
2023-01-13T12:57:34.719Z,9.11
2023-01-13T12:59:59.064Z,9.40
2023-01-13T13:02:27.042Z,9.44
2023-01-13T13:04:52.656Z,9.34
2023-01-13T13:07:39.300Z,9.32
2023-01-13T13:10:28.387Z,9.49
2023-01-13T13:13:12.574Z,9.34
2023-01-13T13:15:35.930Z,9.31
2023-01-13T13:18:24.747Z,9.23
2023-01-13T13:21:00.678Z,9.28
2023-01-13T13:23:56.779Z,9.24
2023-01-13T13:26:19.980Z,9.04
2023-01-13T13:29:05.538Z,8.87
2023-01-13T13:31:37.758Z,8.63
2023-01-13T13:34:28.470Z,8.52
2023-01-13T13:37:07.969Z,8.62
2023-01-13T13:39:50.574Z,8.69
2023-01-13T13:42:54.762Z,8.68
2023-01-13T13:45:40.897Z,8.62
2023-01-13T13:48:30.992Z,8.50
2023-01-13T13:50:57.916Z,8.48
2023-01-13T13:53:19.976Z,8.52
2023-01-13T13:55:53.208Z,8.50
2023-01-13T13:58:17.774Z,8.47
2023-01-13T14:00:39.591Z,8.44
2023-01-13T14:03:05.427Z,8.40
2023-01-13T14:05:34.154Z,8.34
2023-01-13T14:08:16.671Z,8.50
2023-01-13T14:10:40.586Z,8.27
2023-01-13T14:13:22.364Z,8.03
2023-01-13T14:15:44.819Z,8.03
2023-01-13T14:18:12.659Z,7.54
2023-01-13T14:20:35.633Z,7.39
2023-01-13T14:23:01.422Z,7.19
2023-01-13T14:25:31.286Z,7.21
2023-01-13T14:27:54.635Z,7.39
2023-01-13T14:30:18.703Z,7.40
2023-01-13T14:32:40.625Z,7.36
2023-01-13T14:35:05.151Z,7.40
2023-01-13T14:37:26.537Z,7.43
2023-01-13T14:39:47.989Z,7.40
2023-01-13T14:42:14.055Z,7.39
2023-01-13T14:44:36.782Z,7.52
2023-01-13T14:47:03.244Z,7.53
2023-01-13T14:49:30.550Z,7.66
2023-01-13T14:51:53.183Z,7.68
2023-01-13T14:54:52.317Z,7.71
2023-01-13T14:57:24.222Z,7.59
2023-01-13T15:00:10.129Z,7.55
2023-01-13T15:02:33.053Z,7.53
2023-01-13T15:04:59.221Z,7.55
2023-01-13T15:07:27.111Z,7.59
2023-01-13T15:09:53.920Z,7.53
2023-01-13T15:12:37.761Z,7.48
2023-01-13T15:15:00.102Z,7.38
2023-01-13T15:17:21.520Z,7.24
2023-01-13T15:19:43.197Z,7.18
2023-01-13T15:22:04.640Z,7.12
2023-01-13T15:24:26.182Z,7.18
2023-01-13T15:26:47.605Z,7.17
2023-01-13T15:29:15.159Z,7.19
2023-01-13T15:31:36.673Z,7.17
2023-01-13T15:34:00.187Z,7.08
2023-01-13T15:36:31.028Z,7.02
2023-01-13T15:38:53.052Z,7.00
2023-01-13T15:41:14.499Z,7.01
2023-01-13T15:43:54.769Z,7.07
2023-01-13T15:46:37.143Z,7.01
2023-01-13T15:49:02.137Z,6.90
2023-01-13T15:51:23.571Z,6.88
2023-01-13T15:53:45.010Z,6.81
2023-01-13T15:56:19.918Z,6.78
2023-01-13T15:58:41.369Z,6.79
2023-01-13T16:01:02.912Z,6.81
2023-01-13T16:03:24.512Z,6.74
2023-01-13T16:05:45.922Z,6.79
2023-01-13T16:08:25.446Z,6.77
2023-01-13T16:10:47.853Z,6.76
2023-01-13T16:13:09.366Z,6.83
2023-01-13T16:15:30.901Z,6.80
2023-01-13T16:18:00.983Z,6.79
2023-01-13T16:20:23.346Z,6.80
2023-01-13T16:22:48.144Z,6.77
2023-01-13T16:25:21.559Z,6.79
2023-01-13T16:27:43.060Z,6.80
2023-01-13T16:30:04.961Z,6.81
2023-01-13T16:32:26.414Z,6.86
2023-01-13T16:34:48.440Z,6.73
2023-01-13T16:37:19.886Z,6.79
2023-01-13T16:39:41.334Z,6.78
2023-01-13T16:42:02.744Z,6.81
2023-01-13T16:44:24.206Z,6.75
2023-01-13T16:46:47.335Z,6.79
2023-01-13T16:49:11.865Z,6.70
2023-01-13T16:51:33.661Z,6.68
2023-01-13T16:53:55.104Z,6.64
2023-01-13T16:56:31.618Z,6.69
2023-01-13T16:58:55.608Z,6.71
2023-01-13T17:01:21.635Z,6.68
2023-01-13T17:03:44.409Z,6.63
2023-01-13T17:06:07.551Z,6.59
2023-01-13T17:08:29.031Z,6.52
2023-01-13T17:10:50.638Z,6.54
2023-01-13T17:13:16.261Z,6.57
2023-01-13T17:15:38.656Z,6.56
2023-01-13T17:18:00.114Z,6.47
2023-01-13T17:20:21.526Z,6.41
2023-01-13T17:22:45.635Z,6.35
2023-01-13T17:25:11.337Z,6.36
2023-01-13T17:27:33.123Z,6.36
2023-01-13T17:29:54.824Z,6.31
2023-01-13T17:32:17.886Z,6.30
2023-01-13T17:34:40.175Z,6.31
2023-01-13T17:37:01.619Z,6.30
2023-01-13T17:39:26.179Z,6.38
2023-01-13T17:41:47.923Z,6.30
2023-01-13T17:44:12.905Z,6.33
2023-01-13T17:46:34.335Z,6.27
2023-01-13T17:48:55.827Z,6.29
2023-01-13T17:51:18.503Z,6.27
2023-01-13T17:53:45.564Z,6.23
2023-01-13T17:56:09.572Z,6.23
2023-01-13T17:58:31.068Z,6.11
2023-01-13T18:00:52.490Z,6.06
2023-01-13T18:03:15.022Z,6.08
2023-01-13T18:05:37.319Z,6.18
2023-01-13T18:07:58.808Z,6.20
2023-01-13T18:10:20.327Z,6.30
2023-01-13T18:12:41.780Z,6.20
2023-01-13T18:15:03.450Z,6.23
2023-01-13T18:17:24.922Z,6.25
2023-01-13T18:20:05.265Z,6.26
2023-01-13T18:22:45.292Z,6.22
2023-01-13T18:25:32.080Z,6.26
2023-01-13T18:27:53.498Z,6.31
2023-01-13T18:30:15.178Z,6.29
2023-01-13T18:32:37.220Z,6.26
2023-01-13T18:35:05.701Z,6.31
2023-01-13T18:37:27.999Z,6.37
2023-01-13T18:39:49.448Z,6.39
2023-01-13T18:42:30.303Z,6.37
2023-01-13T18:44:52.590Z,6.38
2023-01-13T18:47:14.053Z,6.33
2023-01-13T18:49:36.393Z,6.35
2023-01-13T18:51:58.165Z,6.35
2023-01-13T18:54:19.768Z,6.36
2023-01-13T18:56:56.528Z,6.37
2023-01-13T18:59:18.164Z,6.28
2023-01-13T19:01:39.686Z,6.35
2023-01-13T19:04:03.606Z,6.38
2023-01-13T19:06:28.366Z,6.40
2023-01-13T19:08:53.410Z,6.38
2023-01-13T19:11:14.919Z,6.38
2023-01-13T19:13:36.635Z,6.45
2023-01-13T19:16:04.290Z,6.48
2023-01-13T19:18:26.049Z,6.51
2023-01-13T19:20:48.034Z,6.47
2023-01-13T19:23:10.157Z,6.50
2023-01-13T19:25:31.648Z,6.47
2023-01-13T19:27:53.052Z,6.47
2023-01-13T19:30:14.705Z,6.40
2023-01-13T19:32:36.647Z,6.43
2023-01-13T19:34:59.533Z,6.48
2023-01-13T19:37:21.017Z,6.52
2023-01-13T19:39:42.572Z,6.47
2023-01-13T19:42:22.746Z,6.56
2023-01-13T19:45:02.654Z,6.54
2023-01-13T19:47:24.123Z,6.51
2023-01-13T19:49:45.819Z,6.49
2023-01-13T19:52:07.271Z,6.54
2023-01-13T19:54:28.878Z,6.60
2023-01-13T19:56:50.371Z,6.58
2023-01-13T19:59:16.055Z,6.60
2023-01-13T20:01:40.008Z,6.54
2023-01-13T20:04:05.541Z,6.53
2023-01-13T20:06:26.927Z,6.40
2023-01-13T20:08:48.643Z,6.41
2023-01-13T20:11:23.783Z,6.25
2023-01-13T20:13:45.189Z,6.20
2023-01-13T20:16:06.955Z,6.08
2023-01-13T20:18:35.602Z,6.08
2023-01-13T20:20:57.009Z,6.11
2023-01-13T20:23:18.431Z,6.13
2023-01-13T20:25:42.459Z,6.01
2023-01-13T20:28:04.333Z,6.02
2023-01-13T20:30:26.882Z,5.89
2023-01-13T20:32:48.458Z,5.84
2023-01-13T20:35:10.686Z,5.87
2023-01-13T20:37:32.080Z,5.87
2023-01-13T20:39:54.628Z,5.91
2023-01-13T20:42:32.195Z,5.95
2023-01-13T20:44:53.659Z,5.85
2023-01-13T20:47:16.059Z,5.90
2023-01-13T20:49:37.502Z,5.83
2023-01-13T20:51:59.084Z,5.90
2023-01-13T20:54:21.214Z,5.80
2023-01-13T20:56:43.245Z,5.85
2023-01-13T20:59:04.888Z,5.78
2023-01-13T21:01:27.933Z,5.86
2023-01-13T21:03:49.459Z,5.70
2023-01-13T21:06:11.020Z,5.73
2023-01-13T21:08:32.570Z,5.76
2023-01-13T21:11:03.725Z,5.76
2023-01-13T21:13:44.379Z,5.70
2023-01-13T21:16:09.288Z,5.69
2023-01-13T21:18:49.189Z,5.75
2023-01-13T21:21:13.546Z,5.67
2023-01-13T21:23:34.981Z,5.70
2023-01-13T21:25:56.558Z,5.73
2023-01-13T21:28:18.110Z,5.66
2023-01-13T21:30:39.819Z,5.66
2023-01-13T21:33:02.504Z,5.70
2023-01-13T21:35:23.976Z,5.68
2023-01-13T21:37:45.400Z,5.65
2023-01-13T21:40:10.681Z,5.66
2023-01-13T21:42:50.699Z,5.68
2023-01-13T21:45:30.839Z,5.71
2023-01-13T21:47:52.403Z,5.66
2023-01-13T21:50:19.312Z,5.75
2023-01-13T21:52:42.750Z,5.74
2023-01-13T21:55:17.347Z,5.72
2023-01-13T21:57:38.753Z,5.71
2023-01-13T22:00:00.164Z,5.66
2023-01-13T22:02:31.474Z,5.66
2023-01-13T22:04:53.004Z,5.67
2023-01-13T22:07:14.471Z,5.67
2023-01-13T22:09:35.972Z,5.61
2023-01-13T22:11:57.483Z,5.66
2023-01-13T22:14:19.263Z,5.67
2023-01-13T22:16:48.657Z,5.69
2023-01-13T22:19:10.651Z,5.72
2023-01-13T22:21:32.987Z,5.65
2023-01-13T22:23:54.626Z,5.69
2023-01-13T22:26:16.112Z,5.69
2023-01-13T22:28:43.023Z,5.73
2023-01-13T22:31:08.095Z,5.83
2023-01-13T22:33:29.505Z,5.87
2023-01-13T22:35:55.178Z,5.88
2023-01-13T22:38:16.594Z,5.90
2023-01-13T22:40:38.020Z,5.88
2023-01-13T22:42:59.409Z,5.88
2023-01-13T22:45:20.960Z,5.86
2023-01-13T22:47:42.380Z,5.91
2023-01-13T22:50:05.103Z,5.89
2023-01-13T22:52:28.440Z,5.95
2023-01-13T22:54:49.915Z,5.93
2023-01-13T22:57:11.409Z,6.01
2023-01-13T22:59:32.903Z,5.98
2023-01-13T23:01:54.313Z,5.94
2023-01-13T23:04:15.958Z,5.93
2023-01-13T23:06:37.405Z,5.99
2023-01-13T23:08:59.284Z,5.98
2023-01-13T23:11:23.978Z,6.01
2023-01-13T23:13:46.144Z,5.97
2023-01-13T23:16:11.043Z,5.90
2023-01-13T23:18:33.143Z,5.93
2023-01-13T23:20:54.569Z,5.89
2023-01-13T23:23:16.010Z,5.92
2023-01-13T23:25:37.441Z,5.89
2023-01-13T23:27:58.931Z,5.88
2023-01-13T23:30:20.509Z,5.92
2023-01-13T23:32:41.920Z,5.96
2023-01-13T23:35:03.912Z,5.94
2023-01-13T23:37:25.823Z,5.99
2023-01-13T23:39:47.259Z,5.97
2023-01-13T23:42:08.687Z,5.96
2023-01-13T23:44:30.116Z,5.94
2023-01-13T23:46:51.593Z,5.90
2023-01-13T23:49:13.042Z,5.94
2023-01-13T23:51:34.642Z,5.91
2023-01-13T23:53:56.869Z,5.97
2023-01-13T23:56:21.191Z,5.99
2023-01-13T23:58:43.281Z,5.92
